Time;durP1;ratioP1;P1;durP2;ratioP2;P2;SDS_P1;SDS_P2;PMS_P1;PMS_P2;Temp;Humidity;BMP_temperature;BMP_pressure;BME280_temperature;BME280_humidity;BME280_pressure;Samples;Min_cycle;Max_cycle;Signal;HPM_P1;HPM_P2
2022/01/05 00:00:12;;;;;;;1.53;0.67;;;6.10;99.90;;;6.37;70.62;96052.78;5009337;28;20045;-52
2022/01/05 00:02:40;;;;;;;1.63;0.80;;;6.00;99.90;;;6.37;71.38;96045.66;5010324;28;20221;-52
2022/01/05 00:05:09;;;;;;;1.03;0.83;;;6.00;99.90;;;6.36;70.67;96046.69;5008546;28;20056;-48
2022/01/05 00:07:37;;;;;;;2.83;1.30;;;6.00;99.90;;;6.39;71.07;96035.75;5010890;28;20233;-49
2022/01/05 00:10:05;;;;;;;6.30;3.33;;;6.10;99.90;;;6.41;70.54;96035.56;5010060;28;20060;-48
2022/01/05 00:12:33;;;;;;;5.60;1.87;;;6.10;99.90;;;6.41;70.91;96039.03;5009465;28;20236;-51
2022/01/05 00:15:01;;;;;;;8.43;3.50;;;6.10;99.90;;;6.43;70.84;96042.31;5009149;28;20052;-50
2022/01/05 00:17:29;;;;;;;6.67;2.00;;;6.10;99.90;;;6.44;70.53;96041.34;5008925;28;20048;-50
2022/01/05 00:19:57;;;;;;;3.83;1.90;;;6.10;99.90;;;6.43;70.94;96034.38;5010259;28;20240;-47
2022/01/05 00:22:25;;;;;;;3.53;1.60;;;6.10;99.90;;;6.45;70.95;96035.03;5008146;28;20390;-49
2022/01/05 00:24:53;;;;;;;2.73;1.43;;;6.10;99.90;;;6.45;71.14;96026.28;5008760;28;20042;-49
2022/01/05 00:27:21;;;;;;;1.70;0.80;;;6.10;99.90;;;6.47;70.89;96035.69;5009704;28;20058;-50
2022/01/05 00:29:49;;;;;;;1.47;1.00;;;6.10;99.90;;;6.48;71.02;96029.41;5008597;28;20278;-49
2022/01/05 00:32:17;;;;;;;1.37;0.80;;;6.20;99.90;;;6.47;70.70;96027.75;5009158;28;20084;-48
2022/01/05 00:34:45;;;;;;;1.57;0.90;;;6.10;99.90;;;6.45;70.70;96021.81;5008725;28;20049;-50
2022/01/05 00:37:13;;;;;;;3.07;1.13;;;6.10;99.90;;;6.45;70.92;96013.06;5008840;28;20366;-48
2022/01/05 00:39:41;;;;;;;2.10;1.10;;;6.10;99.90;;;6.45;70.92;96003.31;5008588;28;20054;-51
2022/01/05 00:42:10;;;;;;;2.40;1.10;;;6.10;99.90;;;6.44;70.19;96012.25;5009230;28;20057;-49
2022/01/05 00:44:37;;;;;;;3.63;1.70;;;6.10;99.90;;;6.41;70.57;96006.50;5009530;28;20049;-47
2022/01/05 00:47:05;;;;;;;4.60;1.30;;;6.10;99.90;;;6.42;70.80;96011.59;5007753;28;20060;-49
2022/01/05 00:49:33;;;;;;;3.07;1.10;;;6.10;99.90;;;6.42;70.06;96003.69;5009090;28;20256;-49
2022/01/05 00:52:03;;;;;;;3.77;1.50;;;6.10;99.90;;;6.44;70.86;95985.00;5008385;28;20042;-49
2022/01/05 00:54:31;;;;;;;4.97;1.60;;;6.20;99.90;;;6.44;70.50;95999.03;5009356;28;20064;-49
2022/01/05 00:56:59;;;;;;;2.63;1.60;;;6.20;99.90;;;6.48;70.41;96000.31;5007670;28;20358;-50
2022/01/05 00:59:26;;;;;;;5.87;1.90;;;6.20;99.90;;;6.49;70.54;95995.84;5009129;28;20045;-48
2022/01/05 01:01:54;;;;;;;1.40;0.70;;;6.20;99.90;;;6.52;70.11;95994.69;5008696;28;20053;-51
2022/01/05 01:04:22;;;;;;;5.27;1.73;;;6.20;99.90;;;6.51;70.21;95988.56;5009633;28;20064;-50
2022/01/05 01:06:50;;;;;;;4.90;1.50;;;6.20;99.90;;;6.50;70.31;95990.41;5008227;28;20060;-52
2022/01/05 01:09:18;;;;;;;2.97;1.10;;;6.20;99.90;;;6.48;70.44;95994.22;5008262;28;20054;-51
2022/01/05 01:11:46;;;;;;;1.67;0.90;;;6.20;99.90;;;6.47;70.70;96003.97;5007489;28;20072;-53
2022/01/05 01:14:14;;;;;;;1.60;0.80;;;6.10;99.90;;;6.47;70.41;96005.78;5007859;28;20261;-49
2022/01/05 01:16:42;;;;;;;0.87;0.77;;;6.10;99.90;;;6.47;70.09;96017.19;5008904;28;20050;-51
2022/01/05 01:19:11;;;;;;;1.63;0.80;;;6.10;99.90;;;6.43;70.51;96015.88;5008966;28;20049;-47
2022/01/05 01:21:39;;;;;;;1.70;1.10;;;6.10;99.90;;;6.37;70.01;96018.41;5008092;28;20053;-49
2022/01/05 01:24:07;;;;;;;1.80;0.90;;;6.00;99.90;;;6.30;70.60;96018.28;5007762;28;20382;-51
2022/01/05 01:26:35;;;;;;;1.50;0.67;;;5.90;99.90;;;6.29;70.14;96020.09;5007962;28;20054;-50
2022/01/05 01:29:03;;;;;;;1.00;0.90;;;5.90;99.90;;;6.31;70.44;96014.66;5008963;28;20129;-50
2022/01/05 01:31:31;;;;;;;1.23;0.80;;;6.00;99.90;;;6.35;70.59;96023.88;5009057;28;20356;-52
2022/01/05 01:33:59;;;;;;;1.60;0.70;;;6.00;99.90;;;6.30;70.17;96029.69;5007643;28;20352;-48
2022/01/05 01:36:27;;;;;;;0.63;0.40;;;6.00;99.90;;;6.31;70.29;96027.88;5008210;28;20079;-48
2022/01/05 01:38:55;;;;;;;0.70;0.67;;;6.00;99.90;;;6.35;70.62;96036.28;5008315;28;20050;-48
2022/01/05 01:41:23;;;;;;;0.40;0.40;;;6.00;99.90;;;6.32;70.10;96029.53;5005899;28;20226;-48
2022/01/05 01:43:51;;;;;;;0.10;0.10;;;6.00;99.90;;;6.33;70.18;96028.50;5007650;28;20137;-47
2022/01/05 01:46:20;;;;;;;0.50;0.40;;;6.10;99.90;;;6.36;70.67;96040.53;5008052;28;20054;-51
2022/01/05 01:48:48;;;;;;;0.30;0.30;;;6.10;99.90;;;6.30;70.02;96042.91;5007581;28;20550;-48
2022/01/05 01:51:17;;;;;;;0.30;0.30;;;6.10;99.90;;;6.30;70.02;96042.91;5007367;28;20076;-48
2022/01/05 01:53:45;;;;;;;0.20;0.20;;;6.10;99.90;;;6.27;70.20;96043.25;5007007;28;20042;-51
2022/01/05 01:56:15;;;;;;;0.10;0.10;;;6.10;99.90;;;6.30;70.40;96044.69;5006220;28;20063;-50
2022/01/05 01:58:45;;;;;;;0.20;0.20;;;6.10;99.90;;;6.31;70.61;96044.53;5006694;28;20050;-50
2022/01/05 02:01:15;;;;;;;0.20;0.20;;;6.10;99.90;;;6.38;70.34;96041.19;5008569;28;20058;-53
2022/01/05 02:03:43;;;;;;;0.20;0.20;;;6.20;99.90;;;6.38;70.73;96042.03;5006622;28;20057;-48
2022/01/05 02:06:11;;;;;;;0.20;0.20;;;6.20;99.90;;;6.39;69.90;96045.50;5006830;28;20064;-47
2022/01/05 02:08:39;;;;;;;0.20;0.20;;;6.20;99.90;;;6.37;70.47;96047.50;5008905;28;20057;-48
2022/01/05 02:11:09;;;;;;;1.10;0.30;;;6.20;99.90;;;6.36;70.26;96059.91;5009308;28;20045;-48
2022/01/05 02:13:37;;;;;;;1.10;0.23;;;6.20;99.90;;;6.38;70.37;96072.91;5006409;28;20046;-50
2022/01/05 02:16:05;;;;;;;0.43;0.33;;;6.10;99.90;;;6.35;70.11;96073.28;5006555;28;20058;-51
2022/01/05 02:21:13;;;;;;;0.83;0.20;;;6.20;99.90;;;6.41;70.67;96046.97;5008757;28;20383;-50
2022/01/05 02:23:42;;;;;;;0.40;0.40;;;6.20;99.90;;;6.45;70.01;96055.38;5008698;28;20394;-49
2022/01/05 02:26:11;;;;;;;1.67;0.30;;;6.20;99.90;;;6.45;70.27;96056.19;5008239;28;20816;-49
2022/01/05 02:28:40;;;;;;;0.30;0.30;;;6.20;99.90;;;6.48;70.20;96047.09;5007216;28;20292;-47
2022/01/05 02:31:09;;;;;;;0.23;0.17;;;6.20;99.90;;;6.51;70.53;96049.38;5007286;28;20053;-46
2022/01/05 02:33:40;;;;;;;0.20;0.20;;;6.20;99.90;;;6.48;70.03;96041.81;5006913;28;20053;-49
2022/01/05 02:36:11;;;;;;;0.30;0.30;;;6.20;99.90;;;6.49;70.14;96040.81;5007299;28;20407;-47
2022/01/05 02:38:40;;;;;;;0.40;0.40;;;6.20;99.90;;;6.49;70.09;96057.50;5007258;28;20742;-48
2022/01/05 02:41:11;;;;;;;0.37;0.33;;;6.20;99.90;;;6.47;69.90;96038.31;5006822;28;20268;-47
2022/01/05 02:43:41;;;;;;;0.20;0.20;;;6.10;99.90;;;6.48;70.15;96047.09;5006711;28;20049;-47
2022/01/05 02:46:12;;;;;;;0.30;0.30;;;6.10;99.90;;;6.49;70.11;96052.22;5006795;28;20265;-51
2022/01/05 02:48:41;;;;;;;0.63;0.30;;;6.20;99.90;;;6.48;70.41;96055.84;5007540;28;20056;-47
2022/01/05 02:51:11;;;;;;;0.40;0.30;;;6.10;99.90;;;6.47;70.20;96061.31;5006998;28;20058;-48
2022/01/05 02:53:39;;;;;;;0.30;0.30;;;6.10;99.90;;;6.50;69.86;96064.44;5005434;28;20058;-50
2022/01/05 02:56:07;;;;;;;0.40;0.40;;;6.20;99.90;;;6.50;69.92;96061.78;5006509;28;20258;-50
2022/01/05 02:58:34;;;;;;;1.53;0.33;;;6.20;99.90;;;6.53;70.71;96063.25;5006892;28;20052;-47
2022/01/05 03:01:03;;;;;;;0.10;0.10;;;6.30;99.90;;;6.55;70.64;96061.25;5007190;28;20378;-47
2022/01/05 03:03:31;;;;;;;0.27;0.20;;;6.30;99.90;;;6.56;70.49;96062.09;5006545;28;20080;-49
2022/01/05 03:05:59;;;;;;;0.53;0.30;;;6.30;99.90;;;6.56;70.44;96059.44;5007166;28;20061;-50
2022/01/05 03:08:28;;;;;;;0.70;0.30;;;6.30;99.90;;;6.53;69.83;96055.31;5006900;28;20062;-48
2022/01/05 03:10:56;;;;;;;0.30;0.30;;;6.20;99.90;;;6.56;69.92;96065.56;5005594;28;20370;-47
2022/01/05 03:13:24;;;;;;;0.57;0.20;;;6.30;99.90;;;6.53;70.24;96073.81;5005949;28;20332;-49
2022/01/05 03:15:52;;;;;;;0.47;0.23;;;6.20;99.90;;;6.56;69.59;96073.50;5005947;28;20042;-49
2022/01/05 03:18:20;;;;;;;0.20;0.20;;;6.40;99.90;;;6.58;69.81;96078.59;5007497;28;20041;-47
2022/01/05 03:20:48;;;;;;;0.30;0.30;;;6.40;99.90;;;6.60;70.27;96076.59;5006919;28;20120;-47
2022/01/05 03:23:17;;;;;;;0.10;0.10;;;6.40;99.90;;;6.60;69.79;96074.78;5006308;28;20379;-49
2022/01/05 03:25:45;;;;;;;0.30;0.30;;;6.40;99.90;;;6.56;70.02;96076.13;5006316;28;20255;-48
2022/01/05 03:28:13;;;;;;;0.20;0.13;;;6.40;99.90;;;6.55;69.87;96073.66;5006184;28;20064;-48
2022/01/05 03:30:41;;;;;;;1.50;0.23;;;6.40;99.90;;;6.57;69.92;96083.06;5006930;28;20348;-48
2022/01/05 03:33:12;;;;;;;0.27;0.20;;;6.40;99.90;;;6.56;70.19;96080.59;5006429;28;20045;-47
2022/01/05 03:35:45;;;;;;;0.50;0.40;;;6.50;99.90;;;6.54;70.23;96087.88;5006090;28;20042;-51
2022/01/05 03:38:17;;;;;;;0.20;0.10;;;6.50;99.90;;;6.50;69.80;96082.13;5005167;28;20042;-48
2022/01/05 03:40:48;;;;;;;0.60;0.30;;;6.40;99.90;;;6.50;70.10;96080.28;5007090;28;20050;-49
2022/01/05 03:43:17;;;;;;;0.33;0.33;;;6.40;99.90;;;6.50;69.77;96087.41;5005644;28;20764;-49
2022/01/05 03:45:45;;;;;;;0.37;0.30;;;6.40;99.90;;;6.50;69.78;96092.69;5006300;28;20068;-46
2022/01/05 03:48:16;;;;;;;0.67;0.17;;;6.30;99.90;;;6.45;70.36;96103.78;5006505;28;20058;-49
2022/01/05 03:50:45;;;;;;;1.27;0.30;;;6.30;99.90;;;6.47;70.60;96095.69;5007156;28;20071;-49
2022/01/05 03:53:13;;;;;;;1.50;1.30;;;6.30;99.90;;;6.49;70.19;96109.53;5006152;28;20052;-48
2022/01/05 03:55:43;;;;;;;0.80;0.73;;;6.20;99.90;;;6.52;70.84;96117.13;5005646;28;20244;-48
2022/01/05 03:58:11;;;;;;;0.43;0.43;;;6.10;99.90;;;6.52;70.40;96124.25;5006490;28;20352;-47
2022/01/05 04:00:45;;;;;;;0.80;0.50;;;6.30;99.90;;;6.56;70.19;96107.03;5006409;28;20251;-53
2022/01/05 04:03:13;;;;;;;0.47;0.40;;;6.30;99.90;;;6.57;70.23;96109.53;5005439;28;20068;-48
2022/01/05 04:05:41;;;;;;;0.53;0.30;;;6.30;99.90;;;6.58;70.29;96108.50;5007803;28;20065;-50
2022/01/05 04:08:09;;;;;;;0.30;0.20;;;6.30;99.90;;;6.60;70.89;96118.91;5010178;28;20049;-51
2022/01/05 04:10:39;;;;;;;0.63;0.30;;;6.30;99.90;;;6.61;70.49;96123.19;5009779;28;20053;-49
2022/01/05 04:13:07;;;;;;;5.60;3.50;;;6.40;99.90;;;6.60;70.18;96127.66;5009188;28;20061;-51
2022/01/05 04:15:35;;;;;;;1.13;0.77;;;6.40;99.90;;;6.57;70.58;96141.25;5009437;28;20053;-48
2022/01/05 04:18:03;;;;;;;0.70;0.43;;;6.30;99.90;;;6.55;70.95;96143.22;5009783;28;20050;-51
2022/01/05 04:20:31;;;;;;;1.23;0.50;;;6.40;99.90;;;6.58;70.77;96142.88;5011138;28;20312;-48
2022/01/05 04:22:59;;;;;;;1.70;1.27;;;6.40;99.90;;;6.55;71.01;96155.63;5008930;28;20061;-47
2022/01/05 04:25:26;;;;;;;1.60;0.97;;;6.40;99.90;;;6.46;70.83;96182.09;5010146;28;20068;-51
2022/01/05 04:27:54;;;;;;;2.43;1.17;;;6.40;99.90;;;6.30;70.61;96167.13;5009035;28;20064;-48
2022/01/05 04:30:22;;;;;;;3.57;1.87;;;6.20;99.90;;;6.21;70.94;96172.63;5011015;28;20049;-47
2022/01/05 04:32:50;;;;;;;0.80;0.60;;;6.20;99.90;;;6.02;71.38;96179.09;5008559;28;20068;-49
2022/01/05 04:35:38;;;;;;;1.30;0.80;;;6.00;99.90;;;6.03;71.40;96180.72;5009383;28;20052;-48
2022/01/05 04:38:06;;;;;;;0.60;0.60;;;6.00;99.90;;;5.87;72.15;96182.41;5009396;28;20359;-48
2022/01/05 04:40:33;;;;;;;0.90;0.70;;;5.90;99.90;;;5.93;71.64;96172.97;5009460;28;20521;-49
2022/01/05 04:43:01;;;;;;;1.43;0.90;;;5.90;99.90;;;5.87;71.83;96184.19;5006679;28;20336;-48
2022/01/05 04:45:29;;;;;;;1.70;1.00;;;5.90;99.90;;;5.92;71.44;96195.09;5008709;28;20252;-47
2022/01/05 04:47:57;;;;;;;1.83;1.10;;;6.00;99.90;;;5.87;71.96;96186.84;5008609;28;20046;-52
2022/01/05 04:50:25;;;;;;;2.00;0.80;;;5.90;99.90;;;5.69;71.29;96208.97;5009961;28;20049;-48
2022/01/05 04:52:53;;;;;;;2.20;1.50;;;5.80;99.90;;;5.77;70.96;96202.84;5008298;28;20056;-49
2022/01/05 04:55:20;;;;;;;1.23;1.10;;;5.80;99.90;;;5.73;71.14;96207.66;5009696;28;20046;-46
2022/01/05 04:57:48;;;;;;;1.40;1.20;;;5.80;99.90;;;5.71;71.67;96196.44;5008377;28;20049;-46
2022/01/05 05:00:16;;;;;;;1.87;1.70;;;5.80;99.90;;;5.64;71.70;96240.34;5008851;28;20076;-49
2022/01/05 05:02:44;;;;;;;1.07;0.80;;;5.70;99.90;;;4.67;68.79;96287.44;5008530;28;20058;-49
2022/01/05 05:05:12;;;;;;;0.80;0.80;;;4.50;99.90;;;4.13;70.51;96278.88;5008875;28;20053;-47
2022/01/05 05:07:39;;;;;;;1.03;0.70;;;3.90;99.90;;;3.68;70.95;96328.06;5008503;28;20192;-49
2022/01/05 05:10:08;;;;;;;2.30;0.80;;;3.40;99.90;;;3.53;71.93;96303.25;5008096;28;20045;-48
2022/01/05 05:12:35;;;;;;;1.07;0.80;;;3.30;99.90;;;3.53;71.90;96311.94;5007540;28;20064;-47
2022/01/05 05:15:04;;;;;;;1.10;0.90;;;3.20;99.90;;;3.65;72.23;96317.81;5009311;28;20056;-49
2022/01/05 05:17:31;;;;;;;1.37;1.03;;;3.40;99.90;;;3.67;72.13;96331.66;5006237;28;20052;-48
2022/01/05 05:19:59;;;;;;;1.60;0.80;;;3.40;99.90;;;3.65;72.01;96332.78;5008480;28;20066;-51
2022/01/05 05:22:27;;;;;;;1.67;1.00;;;3.40;99.90;;;3.69;71.71;96348.13;5007263;28;20054;-49
2022/01/05 05:24:55;;;;;;;1.50;1.00;;;3.40;99.90;;;3.84;71.74;96345.81;5008116;28;20052;-47
2022/01/05 05:27:23;;;;;;;2.30;2.03;;;3.60;99.90;;;3.75;71.32;96350.16;5007188;28;20464;-48
2022/01/05 05:29:51;;;;;;;2.13;1.33;;;3.50;99.90;;;3.69;71.08;96358.66;5008561;28;20045;-48
2022/01/05 05:32:19;;;;;;;2.10;1.23;;;3.40;99.90;;;3.66;71.46;96353.66;5007478;28;20058;-48
2022/01/05 05:34:47;;;;;;;2.37;1.20;;;3.30;99.90;;;3.70;71.46;96362.94;5007748;28;20054;-52
2022/01/05 05:37:17;;;;;;;1.37;1.10;;;3.30;99.90;;;3.69;72.10;96363.91;5007457;28;20382;-48
2022/01/05 05:39:45;;;;;;;1.97;1.40;;;3.40;99.90;;;3.82;71.63;96371.44;5008138;28;20052;-52
2022/01/05 05:42:13;;;;;;;1.43;1.03;;;3.50;99.90;;;3.90;71.63;96374.16;5008649;28;20235;-48
2022/01/05 05:44:41;;;;;;;0.67;0.67;;;3.60;99.90;;;3.90;71.89;96382.06;5007881;28;20054;-50
2022/01/05 05:47:08;;;;;;;1.47;1.00;;;3.70;99.90;;;3.86;71.51;96385.16;5008201;28;20057;-51
2022/01/05 05:49:36;;;;;;;1.53;0.80;;;3.50;99.90;;;3.73;71.83;96386.31;5008632;28;20053;-50
2022/01/05 05:52:04;;;;;;;1.50;1.07;;;3.50;99.90;;;3.81;71.42;96397.94;5006791;28;20256;-51
2022/01/05 05:54:33;;;;;;;1.10;0.83;;;3.50;99.90;;;3.84;71.79;96400.25;5007779;28;20351;-51
2022/01/05 05:57:01;;;;;;;1.93;1.17;;;3.60;99.90;;;3.82;71.76;96405.69;5007679;28;20057;-50
2022/01/05 05:59:29;;;;;;;1.87;1.20;;;3.60;99.90;;;3.76;71.76;96419.41;5007920;28;20046;-47
2022/01/05 06:01:56;;;;;;;1.20;0.77;;;3.50;99.90;;;3.86;71.77;96416.75;5007882;28;20084;-47
2022/01/05 06:04:26;;;;;;;2.00;1.27;;;3.60;99.90;;;3.87;71.61;96419.19;5007578;28;20056;-47
2022/01/05 06:06:54;;;;;;;1.50;0.90;;;3.60;99.90;;;3.88;71.91;96428.78;5007355;28;20058;-47
2022/01/05 06:09:22;;;;;;;2.73;1.50;;;3.60;99.90;;;3.70;71.65;96434.03;5007080;28;20056;-47
2022/01/05 06:11:50;;;;;;;1.60;1.07;;;3.40;99.90;;;3.71;72.01;96445.38;5007300;28;20083;-48
2022/01/05 06:14:17;;;;;;;1.60;1.10;;;3.40;99.90;;;3.71;72.37;96453.28;5007152;28;20240;-49
2022/01/05 06:16:45;;;;;;;1.70;1.10;;;3.40;99.90;;;3.70;72.45;96454.22;5006378;28;20048;-49
2022/01/05 06:19:13;;;;;;;0.83;0.80;;;3.50;99.90;;;3.72;71.96;96465.44;5007454;28;20040;-47
2022/01/05 06:21:43;;;;;;;2.93;1.40;;;3.50;99.90;;;3.78;71.88;96471.94;5007718;28;20046;-50
2022/01/05 06:24:12;;;;;;;2.73;1.00;;;3.50;99.90;;;3.85;71.81;96473.00;5008578;28;20240;-47
2022/01/05 06:26:39;;;;;;;2.00;1.40;;;3.70;99.90;;;3.84;71.99;96479.22;5007477;28;20054;-49
2022/01/05 06:29:08;;;;;;;1.27;0.83;;;3.60;99.90;;;3.70;71.93;96481.41;5007925;28;20060;-52
2022/01/05 06:31:36;;;;;;;1.73;1.20;;;3.50;99.90;;;3.61;72.57;96492.00;5007264;28;20065;-46
2022/01/05 06:34:04;;;;;;;3.10;1.10;;;3.40;99.90;;;3.58;71.92;96487.81;5006942;28;20042;-47
2022/01/05 06:36:32;;;;;;;1.07;0.97;;;3.30;99.90;;;3.72;72.18;96497.88;5007266;28;20064;-47
2022/01/05 06:39:01;;;;;;;6.83;1.10;;;3.50;99.90;;;3.75;72.17;96500.19;5006622;28;20049;-47
2022/01/05 06:41:29;;;;;;;1.20;0.80;;;3.50;99.90;;;3.72;72.41;96492.63;5007169;28;20056;-48
2022/01/05 06:43:57;;;;;;;1.00;0.80;;;3.40;99.90;;;3.68;71.72;96501.78;5007115;28;20062;-50
2022/01/05 06:46:25;;;;;;;1.23;0.90;;;3.40;99.90;;;3.57;71.64;96499.34;5006474;28;20052;-49
2022/01/05 06:48:53;;;;;;;0.87;0.73;;;3.20;99.90;;;3.57;71.43;96507.22;5007651;28;20057;-48
2022/01/05 06:51:20;;;;;;;0.80;0.73;;;3.20;99.90;;;3.45;71.40;96511.00;5008414;28;20064;-50
2022/01/05 06:53:48;;;;;;;1.33;0.90;;;3.10;99.90;;;3.44;72.53;96509.38;5006777;28;20056;-49
2022/01/05 06:56:16;;;;;;;1.80;1.10;;;3.10;99.90;;;3.38;72.16;96515.22;5006487;28;20053;-49
2022/01/05 06:58:44;;;;;;;1.20;1.00;;;3.10;99.90;;;3.24;72.39;96521.72;5007174;28;20641;-49
2022/01/05 07:01:11;;;;;;;3.03;1.63;;;3.00;99.90;;;3.15;72.70;96526.88;5007428;28;20056;-49
2022/01/05 07:03:39;;;;;;;1.60;1.27;;;2.90;99.90;;;3.21;72.56;96532.56;5007031;28;20050;-49
2022/01/05 07:06:07;;;;;;;1.23;1.00;;;2.90;99.90;;;3.22;73.14;96542.09;5007611;28;20223;-52
2022/01/05 07:08:35;;;;;;;1.70;1.10;;;3.00;99.90;;;3.15;73.13;96547.09;5005860;28;20055;-48
2022/01/05 07:11:03;;;;;;;2.20;1.50;;;2.90;99.90;;;3.21;72.78;96553.59;5007618;28;20048;-50
2022/01/05 07:13:31;;;;;;;1.90;1.10;;;3.00;99.90;;;2.88;73.12;96556.53;5006394;28;20058;-48
2022/01/05 07:15:58;;;;;;;3.53;1.20;;;2.70;99.90;;;2.78;73.23;96560.16;5005932;28;20060;-48
2022/01/05 07:18:26;;;;;;;1.87;1.20;;;2.70;99.90;;;2.66;72.84;96568.19;5006644;28;20054;-50
2022/01/05 07:20:54;;;;;;;2.07;1.30;;;2.70;99.90;;;2.40;72.93;96569.69;5007622;28;20061;-48
2022/01/05 07:23:22;;;;;;;2.33;1.60;;;2.50;99.90;;;2.53;72.88;96575.50;5007162;28;20598;-51
2022/01/05 07:25:50;;;;;;;4.00;1.83;;;2.50;99.90;;;2.58;73.42;96581.19;5006569;28;20264;-47
2022/01/05 07:28:17;;;;;;;2.80;2.43;;;2.60;99.90;;;2.53;72.68;96583.38;5007044;28;20225;-51
2022/01/05 07:30:45;;;;;;;1.70;1.20;;;2.60;99.90;;;2.44;72.64;96610.47;5006134;28;20052;-49
2022/01/05 07:33:13;;;;;;;2.67;1.33;;;2.50;99.90;;;2.42;72.61;96602.72;5006677;28;20049;-49
2022/01/05 07:35:41;;;;;;;2.90;1.10;;;2.50;99.90;;;2.27;72.40;96599.66;5006354;28;20049;-52
2022/01/05 07:38:09;;;;;;;3.23;1.97;;;2.40;99.90;;;2.32;72.65;96594.00;5006155;28;20050;-52
2022/01/05 07:40:37;;;;;;;6.40;2.30;;;2.40;99.90;;;2.37;72.80;96602.31;5008534;28;20050;-50
2022/01/05 07:43:06;;;;;;;3.13;2.10;;;2.50;99.90;;;2.31;72.24;96611.56;5007483;28;20046;-49
2022/01/05 07:45:35;;;;;;;3.90;1.70;;;2.40;99.90;;;2.43;71.88;96601.78;5011059;28;20072;-50
2022/01/05 07:48:04;;;;;;;2.13;1.57;;;2.50;99.90;;;2.38;71.94;96595.25;5010372;28;20046;-51
2022/01/05 07:50:33;;;;;;;3.03;1.60;;;2.50;99.90;;;2.42;71.81;96601.91;5011600;28;20058;-51
2022/01/05 07:53:01;;;;;;;4.73;1.87;;;2.40;99.90;;;2.26;71.68;96628.69;5009763;28;20256;-48
2022/01/05 07:55:30;;;;;;;4.07;2.27;;;2.30;99.90;;;2.20;71.41;96637.94;5009584;28;20050;-48
2022/01/05 07:57:59;;;;;;;3.73;1.70;;;2.30;99.90;;;2.26;71.55;96640.03;5011511;28;20069;-52
2022/01/05 08:00:27;;;;;;;4.27;2.00;;;2.30;99.90;;;2.28;71.54;96639.91;5010722;28;20227;-50
2022/01/05 08:02:55;;;;;;;5.40;2.57;;;2.30;99.90;;;2.28;70.93;96653.84;5009586;28;20056;-50
2022/01/05 08:05:25;;;;;;;2.97;2.30;;;2.30;99.90;;;2.29;71.71;96649.44;5010076;28;20050;-50
2022/01/05 08:07:53;;;;;;;3.40;2.40;;;2.30;99.90;;;2.30;71.44;96648.47;5009833;28;20046;-45
2022/01/05 08:10:21;;;;;;;7.27;2.57;;;2.30;99.90;;;2.28;71.34;96653.03;5010138;28;20060;-50
2022/01/05 08:12:49;;;;;;;2.63;1.63;;;2.30;99.90;;;2.26;71.06;96665.47;5009451;28;20042;-48
2022/01/05 08:15:17;;;;;;;3.77;2.23;;;2.30;99.90;;;2.38;71.73;96676.69;5009496;28;20049;-46
2022/01/05 08:17:45;;;;;;;5.93;2.37;;;2.40;99.90;;;2.22;71.53;96682.44;5009825;28;20229;-47
2022/01/05 08:20:13;;;;;;;3.30;2.23;;;2.20;99.90;;;2.10;70.90;96681.72;5010287;28;20052;-47
2022/01/05 08:22:44;;;;;;;4.67;1.87;;;2.10;99.90;;;1.91;71.23;96695.59;5008786;28;20052;-48
2022/01/05 08:25:20;;;;;;;5.37;2.63;;;1.90;99.90;;;1.95;71.62;96694.34;5007387;28;20054;-48
2022/01/05 08:27:48;;;;;;;3.37;2.47;;;2.00;99.90;;;2.00;71.20;96700.06;5009192;28;20053;-45
2022/01/05 08:30:25;;;;;;;3.83;2.90;;;2.10;99.90;;;1.95;71.53;96700.44;5010192;28;20348;-44
2022/01/05 08:32:53;;;;;;;4.50;2.20;;;2.10;99.90;;;2.00;71.59;96709.69;5008778;28;20057;-44
2022/01/05 08:35:23;;;;;;;4.27;2.63;;;2.20;99.90;;;2.03;71.05;96715.53;5007599;28;20042;-47
2022/01/05 08:37:51;;;;;;;4.57;1.90;;;2.10;99.90;;;2.06;71.00;96728.41;5009114;28;20344;-46
2022/01/05 08:40:23;;;;;;;3.60;2.10;;;2.20;99.90;;;1.93;69.56;96720.72;5009874;28;20052;-49
2022/01/05 08:42:53;;;;;;;2.30;1.67;;;2.10;99.90;;;1.95;69.87;96724.06;5009290;28;20057;-49
2022/01/05 08:45:22;;;;;;;4.03;2.70;;;2.10;99.90;;;1.94;69.80;96722.41;5009550;28;20054;-48
2022/01/05 08:47:52;;;;;;;9.13;2.20;;;2.00;99.90;;;1.71;68.21;96739.25;5009384;28;20256;-46
2022/01/05 08:50:24;;;;;;;5.17;1.97;;;1.80;99.90;;;1.75;68.47;96736.25;5009618;28;20060;-46
2022/01/05 08:52:54;;;;;;;9.10;2.47;;;1.90;99.90;;;1.73;68.33;96743.41;5007859;28;20061;-49
2022/01/05 08:55:27;;;;;;;2.43;1.53;;;1.80;99.90;;;1.68;66.77;96765.75;5008736;28;20054;-50
2022/01/05 08:57:56;;;;;;;6.95;2.25;;;1.80;99.70;;;1.71;68.08;96757.63;5008235;28;20061;-49
2022/01/05 09:00:24;;;;;;;4.93;1.67;;;1.80;99.90;;;1.73;67.48;96756.53;5013903;28;20372;-49
2022/01/05 09:02:53;;;;;;;3.87;2.23;;;1.90;99.90;;;1.64;67.09;96752.03;5016245;28;20041;-49
2022/01/05 09:05:23;;;;;;;4.53;2.17;;;1.80;99.60;;;1.51;66.21;96767.13;5017336;28;20049;-51
2022/01/05 09:07:51;;;;;;;4.73;1.70;;;1.70;99.00;;;1.60;67.06;96769.00;5017504;28;20319;-50
2022/01/05 09:10:19;;;;;;;6.07;2.30;;;1.70;99.90;;;1.53;66.62;96763.44;5017158;28;20356;-50
2022/01/05 09:12:48;;;;;;;5.63;1.70;;;1.70;99.90;;;1.40;65.95;96767.16;5017286;28;20046;-47
2022/01/05 09:15:16;;;;;;;5.30;2.00;;;1.60;99.70;;;1.49;67.08;96771.66;5016668;28;20344;-47
2022/01/05 09:17:44;;;;;;;4.50;2.00;;;1.60;99.90;;;1.48;66.48;96773.47;5017022;28;20056;-47
2022/01/05 09:20:11;;;;;;;4.97;1.67;;;1.70;99.90;;;1.37;65.78;96790.06;5017974;28;20048;-46
2022/01/05 09:22:39;;;;;;;4.00;2.17;;;1.60;97.50;;;1.39;66.36;96787.34;5028792;28;20053;-50
2022/01/05 09:25:10;;;;;;;3.17;1.53;;;1.60;98.90;;;1.34;65.50;96790.34;5010492;28;20217;-48
2022/01/05 09:27:39;;;;;;;4.93;2.20;;;1.50;98.10;;;1.43;66.86;96785.28;5019833;28;20233;-49
2022/01/05 09:30:13;;;;;;;6.17;2.00;;;1.60;99.90;;;1.52;66.48;96793.25;5018574;28;20057;-49
2022/01/05 09:32:41;;;;;;;4.80;1.97;;;1.70;99.90;;;1.60;67.19;96812.78;5018248;28;20053;-50
2022/01/05 09:35:15;;;;;;;5.60;2.13;;;1.70;99.90;;;1.79;67.02;96812.94;5018117;28;20244;-46
2022/01/05 09:38:05;;;;;;;5.28;2.45;;;1.90;99.90;;;1.87;67.19;96821.00;5020720;28;20058;-48
2022/01/05 09:43:21;;;;;;;6.47;2.77;;;2.10;99.90;;;1.97;67.69;96839.44;5021426;28;20248;-48
2022/01/05 09:46:10;;;;;;;7.23;2.13;;;2.10;99.90;;;2.10;67.57;96845.34;5019781;28;20046;-47
2022/01/05 09:49:10;;;;;;;6.70;2.03;;;2.30;99.90;;;2.02;66.88;96855.66;5017986;28;20560;-47
2022/01/05 09:51:42;;;;;;;7.00;2.10;;;2.20;99.90;;;2.17;67.20;96854.38;5017034;28;20224;-47
2022/01/05 09:54:12;;;;;;;3.97;2.27;;;2.30;99.90;;;2.22;66.16;96851.34;5015266;28;20345;-48
2022/01/05 09:56:58;;;;;;;4.77;2.40;;;2.30;99.90;;;2.20;65.38;96863.78;5016686;28;20053;-51
2022/01/05 09:59:26;;;;;;;6.20;2.33;;;2.30;97.00;;;2.23;66.35;96853.03;5018299;28;20228;-47
2022/01/05 10:01:54;;;;;;;4.23;2.17;;;2.30;98.70;;;2.24;64.25;96864.38;5017361;28;20041;-47
2022/01/05 10:04:22;;;;;;;6.43;1.90;;;2.30;94.90;;;2.24;63.89;96861.75;5018349;28;20336;-46
2022/01/05 10:06:50;;;;;;;6.90;2.40;;;2.30;92.50;;;2.31;64.85;96858.47;5034661;28;20524;-50
2022/01/05 10:09:19;;;;;;;4.83;1.63;;;2.30;95.00;;;2.12;63.16;96853.91;5017668;28;20052;-51
2022/01/05 10:11:47;;;;;;;6.10;2.37;;;2.10;90.60;;;2.28;65.32;96857.91;5033691;28;20162;-50
2022/01/05 10:14:16;;;;;;;5.13;1.73;;;2.20;95.30;;;2.28;64.46;96861.34;5033025;28;20272;-48
2022/01/05 10:17:08;;;;;;;2.87;1.10;;;2.30;92.20;;;1.97;61.77;96858.66;5018411;28;20058;-49
2022/01/05 10:19:37;;;;;;;6.37;2.30;;;2.00;87.00;;;1.91;62.04;96855.69;5018886;28;20373;-51
2022/01/05 10:22:40;;;;;;;4.23;1.80;;;2.00;86.00;;;2.02;62.65;96860.91;5019657;28;20052;-48
2022/01/05 10:25:18;;;;;;;6.53;2.63;;;2.10;88.40;;;2.14;63.29;96864.31;5015965;28;20340;-49
2022/01/05 10:28:00;;;;;;;5.20;1.73;;;2.20;88.10;;;2.13;61.09;96862.63;5018576;28;20045;-49
2022/01/05 10:30:35;;;;;;;6.53;2.50;;;2.30;81.80;;;2.19;61.84;96869.16;5017959;28;20181;-53
2022/01/05 10:33:04;;;;;;;6.90;2.83;;;2.40;83.30;;;2.27;61.82;96861.47;5019040;28;20344;-48
2022/01/05 10:35:33;;;;;;;5.03;1.70;;;2.50;83.10;;;2.22;61.08;96877.63;5019070;28;20235;-51
2022/01/05 10:38:12;;;;;;;6.33;2.73;;;2.40;81.70;;;2.34;61.57;96889.72;5033927;28;20045;-49
2022/01/05 10:40:42;;;;;;;4.17;1.90;;;2.50;82.60;;;2.40;60.43;96891.00;5018743;28;20041;-49
2022/01/05 10:43:13;;;;;;;3.50;1.87;;;2.50;80.10;;;2.46;60.91;96894.91;5016464;28;20064;-49
2022/01/05 10:45:47;;;;;;;9.60;1.93;;;2.60;80.60;;;2.45;60.56;96899.34;5018716;28;20042;-48